Coalton, Oklahoma
Current Conditions -  °F | °C
As of 8:55 AM on Friday 28 Nov 2014 (Local Time) from KOKM Reporting Station
Clear Clear  
Wind Chill: 41°   Ceiling: Unl
Heat Index: 47°   Visibility: 10mi
Dew Point: 31°   Wind: 15mph
Humidity: 53%   Direction: 190°S
Pressure: 30.14"   Gusts: 26mph
Location:  35.4729°N, 95.9709°W
Report Text: KOKM 281455Z AUTO 19013G23KT 10SM CLR 08/M01 A3014 RMK AO2 T00831007
Loading
Personal Weather Stations






























Interactive Weather Map New forecast layout! Learn more

10-Day Weather Forecast

Advertisements
Track Severe Weather on mobile